sensor_id;sensor_type;location;lat;lon;timestamp;P1;durP1;ratioP1;P2;durP2;ratioP2
10894;SDS011;5500;49.886;8.074;2023-04-29T00:02:17;4.40;;;3.13;;
10894;SDS011;5500;49.886;8.074;2023-04-29T00:04:44;4.10;;;3.00;;
10894;SDS011;5500;49.886;8.074;2023-04-29T00:07:12;3.40;;;3.10;;
10894;SDS011;5500;49.886;8.074;2023-04-29T00:09:41;2.60;;;2.40;;
10894;SDS011;5500;49.886;8.074;2023-04-29T00:12:10;4.03;;;2.17;;
10894;SDS011;5500;49.886;8.074;2023-04-29T00:14:38;3.73;;;1.83;;
10894;SDS011;5500;49.886;8.074;2023-04-29T00:17:06;3.20;;;2.10;;
10894;SDS011;5500;49.886;8.074;2023-04-29T00:19:34;2.83;;;1.80;;
10894;SDS011;5500;49.886;8.074;2023-04-29T00:22:01;1.80;;;1.70;;
10894;SDS011;5500;49.886;8.074;2023-04-29T00:24:29;2.03;;;1.90;;
10894;SDS011;5500;49.886;8.074;2023-04-29T00:26:57;3.57;;;2.30;;
10894;SDS011;5500;49.886;8.074;2023-04-29T00:29:26;2.13;;;1.93;;
10894;SDS011;5500;49.886;8.074;2023-04-29T00:31:54;2.17;;;1.97;;
10894;SDS011;5500;49.886;8.074;2023-04-29T00:34:21;2.70;;;1.30;;
10894;SDS011;5500;49.886;8.074;2023-04-29T00:36:49;1.23;;;1.10;;
10894;SDS011;5500;49.886;8.074;2023-04-29T00:39:17;2.47;;;1.20;;
10894;SDS011;5500;49.886;8.074;2023-04-29T00:41:44;2.43;;;1.30;;
10894;SDS011;5500;49.886;8.074;2023-04-29T00:44:12;0.90;;;0.90;;
10894;SDS011;5500;49.886;8.074;2023-04-29T00:46:41;1.10;;;1.00;;
10894;SDS011;5500;49.886;8.074;2023-04-29T00:49:09;1.73;;;0.80;;
10894;SDS011;5500;49.886;8.074;2023-04-29T00:51:37;1.37;;;0.90;;
10894;SDS011;5500;49.886;8.074;2023-04-29T00:54:07;2.00;;;1.10;;
10894;SDS011;5500;49.886;8.074;2023-04-29T00:56:35;1.07;;;1.07;;
10894;SDS011;5500;49.886;8.074;2023-04-29T00:59:03;2.13;;;0.70;;
10894;SDS011;5500;49.886;8.074;2023-04-29T01:01:31;1.43;;;0.97;;
10894;SDS011;5500;49.886;8.074;2023-04-29T01:04:01;1.30;;;1.00;;
10894;SDS011;5500;49.886;8.074;2023-04-29T01:06:31;0.80;;;0.80;;
10894;SDS011;5500;49.886;8.074;2023-04-29T01:09:12;1.03;;;0.83;;
10894;SDS011;5500;49.886;8.074;2023-04-29T01:11:48;0.90;;;0.77;;
10894;SDS011;5500;49.886;8.074;2023-04-29T01:14:21;1.07;;;0.90;;
10894;SDS011;5500;49.886;8.074;2023-04-29T01:16:50;0.97;;;0.90;;
10894;SDS011;5500;49.886;8.074;2023-04-29T01:19:21;1.27;;;1.10;;
10894;SDS011;5500;49.886;8.074;2023-04-29T01:21:58;0.87;;;0.87;;
10894;SDS011;5500;49.886;8.074;2023-04-29T01:24:27;0.97;;;0.90;;
10894;SDS011;5500;49.886;8.074;2023-04-29T01:26:56;0.73;;;0.73;;
10894;SDS011;5500;49.886;8.074;2023-04-29T01:29:30;1.50;;;1.10;;
10894;SDS011;5500;49.886;8.074;2023-04-29T01:32:03;1.00;;;0.90;;
10894;SDS011;5500;49.886;8.074;2023-04-29T01:34:38;1.50;;;1.17;;
10894;SDS011;5500;49.886;8.074;2023-04-29T01:37:13;1.17;;;1.07;;
10894;SDS011;5500;49.886;8.074;2023-04-29T01:39:46;1.10;;;1.00;;
10894;SDS011;5500;49.886;8.074;2023-04-29T01:42:23;1.80;;;1.20;;
10894;SDS011;5500;49.886;8.074;2023-04-29T01:44:52;2.77;;;1.40;;
10894;SDS011;5500;49.886;8.074;2023-04-29T01:47:21;1.43;;;1.30;;
10894;SDS011;5500;49.886;8.074;2023-04-29T01:49:49;1.70;;;1.03;;
10894;SDS011;5500;49.886;8.074;2023-04-29T01:52:18;1.17;;;1.10;;
10894;SDS011;5500;49.886;8.074;2023-04-29T01:54:47;1.77;;;1.33;;
10894;SDS011;5500;49.886;8.074;2023-04-29T01:57:14;1.20;;;1.07;;
10894;SDS011;5500;49.886;8.074;2023-04-29T01:59:42;2.33;;;1.40;;
10894;SDS011;5500;49.886;8.074;2023-04-29T02:02:10;1.73;;;1.20;;
10894;SDS011;5500;49.886;8.074;2023-04-29T02:04:40;1.10;;;0.93;;
10894;SDS011;5500;49.886;8.074;2023-04-29T02:07:08;1.93;;;1.10;;
10894;SDS011;5500;49.886;8.074;2023-04-29T02:09:35;1.10;;;1.00;;
10894;SDS011;5500;49.886;8.074;2023-04-29T02:12:04;1.30;;;1.20;;
10894;SDS011;5500;49.886;8.074;2023-04-29T02:14:32;2.03;;;1.20;;
10894;SDS011;5500;49.886;8.074;2023-04-29T02:17:03;1.20;;;1.10;;
10894;SDS011;5500;49.886;8.074;2023-04-29T02:19:30;2.03;;;1.50;;
10894;SDS011;5500;49.886;8.074;2023-04-29T02:21:58;2.60;;;1.23;;
10894;SDS011;5500;49.886;8.074;2023-04-29T02:24:26;1.00;;;1.00;;
10894;SDS011;5500;49.886;8.074;2023-04-29T02:26:54;1.60;;;1.00;;
10894;SDS011;5500;49.886;8.074;2023-04-29T02:29:23;3.93;;;1.07;;
10894;SDS011;5500;49.886;8.074;2023-04-29T02:31:51;1.83;;;1.10;;
10894;SDS011;5500;49.886;8.074;2023-04-29T02:34:19;2.03;;;1.30;;
10894;SDS011;5500;49.886;8.074;2023-04-29T02:36:47;1.13;;;1.13;;
10894;SDS011;5500;49.886;8.074;2023-04-29T02:39:15;1.70;;;1.27;;
10894;SDS011;5500;49.886;8.074;2023-04-29T02:41:43;1.80;;;1.30;;
10894;SDS011;5500;49.886;8.074;2023-04-29T02:44:10;1.50;;;1.20;;
10894;SDS011;5500;49.886;8.074;2023-04-29T02:46:39;1.90;;;1.50;;
10894;SDS011;5500;49.886;8.074;2023-04-29T02:49:11;2.50;;;1.20;;
10894;SDS011;5500;49.886;8.074;2023-04-29T02:51:39;1.53;;;1.40;;
10894;SDS011;5500;49.886;8.074;2023-04-29T02:54:07;2.97;;;1.40;;
10894;SDS011;5500;49.886;8.074;2023-04-29T02:56:36;1.60;;;1.50;;
10894;SDS011;5500;49.886;8.074;2023-04-29T02:59:04;2.63;;;1.60;;
10894;SDS011;5500;49.886;8.074;2023-04-29T03:01:31;1.53;;;1.43;;
10894;SDS011;5500;49.886;8.074;2023-04-29T03:04:01;1.53;;;1.37;;
10894;SDS011;5500;49.886;8.074;2023-04-29T03:06:29;2.67;;;1.60;;
10894;SDS011;5500;49.886;8.074;2023-04-29T03:08:56;2.77;;;1.40;;
10894;SDS011;5500;49.886;8.074;2023-04-29T03:11:24;1.43;;;1.33;;
10894;SDS011;5500;49.886;8.074;2023-04-29T03:13:52;2.03;;;1.53;;
10894;SDS011;5500;49.886;8.074;2023-04-29T03:16:20;1.87;;;1.50;;
10894;SDS011;5500;49.886;8.074;2023-04-29T03:18:48;2.53;;;1.50;;
10894;SDS011;5500;49.886;8.074;2023-04-29T03:21:17;1.90;;;1.80;;
10894;SDS011;5500;49.886;8.074;2023-04-29T03:23:45;3.00;;;1.97;;
10894;SDS011;5500;49.886;8.074;2023-04-29T03:26:12;3.17;;;2.10;;
10894;SDS011;5500;49.886;8.074;2023-04-29T03:28:40;2.80;;;1.70;;
10894;SDS011;5500;49.886;8.074;2023-04-29T03:31:08;1.93;;;1.70;;
10894;SDS011;5500;49.886;8.074;2023-04-29T03:33:37;2.20;;;2.00;;
10894;SDS011;5500;49.886;8.074;2023-04-29T03:36:05;2.37;;;1.80;;
10894;SDS011;5500;49.886;8.074;2023-04-29T03:38:35;3.03;;;1.87;;
10894;SDS011;5500;49.886;8.074;2023-04-29T03:41:03;2.00;;;1.90;;
10894;SDS011;5500;49.886;8.074;2023-04-29T03:43:31;2.30;;;2.10;;
10894;SDS011;5500;49.886;8.074;2023-04-29T03:45:58;2.23;;;1.73;;
10894;SDS011;5500;49.886;8.074;2023-04-29T03:48:26;3.03;;;2.00;;
10894;SDS011;5500;49.886;8.074;2023-04-29T03:50:54;2.17;;;1.97;;
10894;SDS011;5500;49.886;8.074;2023-04-29T03:53:21;2.23;;;1.90;;
10894;SDS011;5500;49.886;8.074;2023-04-29T03:55:51;3.30;;;1.80;;
10894;SDS011;5500;49.886;8.074;2023-04-29T03:58:18;2.90;;;1.93;;
10894;SDS011;5500;49.886;8.074;2023-04-29T04:00:46;2.20;;;2.00;;
10894;SDS011;5500;49.886;8.074;2023-04-29T04:03:14;2.70;;;2.30;;
10894;SDS011;5500;49.886;8.074;2023-04-29T04:05:41;3.10;;;2.10;;
10894;SDS011;5500;49.886;8.074;2023-04-29T04:08:09;2.20;;;2.00;;
10894;SDS011;5500;49.886;8.074;2023-04-29T04:10:37;2.50;;;2.10;;
10894;SDS011;5500;49.886;8.074;2023-04-29T04:13:06;2.40;;;2.20;;
10894;SDS011;5500;49.886;8.074;2023-04-29T04:15:34;2.63;;;2.33;;
10894;SDS011;5500;49.886;8.074;2023-04-29T04:18:02;2.40;;;2.20;;
10894;SDS011;5500;49.886;8.074;2023-04-29T04:20:30;3.17;;;2.83;;
10894;SDS011;5500;49.886;8.074;2023-04-29T04:22:58;3.53;;;3.20;;
10894;SDS011;5500;49.886;8.074;2023-04-29T04:25:25;5.80;;;3.60;;
10894;SDS011;5500;49.886;8.074;2023-04-29T04:27:55;3.57;;;3.27;;
10894;SDS011;5500;49.886;8.074;2023-04-29T04:30:24;4.07;;;3.73;;
10894;SDS011;5500;49.886;8.074;2023-04-29T04:32:52;3.90;;;3.60;;
10894;SDS011;5500;49.886;8.074;2023-04-29T04:35:19;4.10;;;3.70;;
10894;SDS011;5500;49.886;8.074;2023-04-29T04:37:47;3.90;;;3.50;;
10894;SDS011;5500;49.886;8.074;2023-04-29T04:40:15;4.57;;;3.80;;
10894;SDS011;5500;49.886;8.074;2023-04-29T04:42:43;4.77;;;4.37;;
10894;SDS011;5500;49.886;8.074;2023-04-29T04:45:10;4.33;;;3.93;;
10894;SDS011;5500;49.886;8.074;2023-04-29T04:47:40;4.17;;;3.77;;
10894;SDS011;5500;49.886;8.074;2023-04-29T04:50:08;4.23;;;3.70;;
10894;SDS011;5500;49.886;8.074;2023-04-29T04:52:36;6.10;;;5.57;;
10894;SDS011;5500;49.886;8.074;2023-04-29T04:55:04;9.87;;;8.43;;
10894;SDS011;5500;49.886;8.074;2023-04-29T04:57:32;11.33;;;10.13;;
10894;SDS011;5500;49.886;8.074;2023-04-29T04:59:59;12.73;;;11.17;;
10894;SDS011;5500;49.886;8.074;2023-04-29T05:02:29;12.63;;;11.07;;
10894;SDS011;5500;49.886;8.074;2023-04-29T05:04:58;15.10;;;12.27;;
10894;SDS011;5500;49.886;8.074;2023-04-29T05:07:26;13.63;;;12.03;;
10894;SDS011;5500;49.886;8.074;2023-04-29T05:09:53;15.80;;;12.63;;
10894;SDS011;5500;49.886;8.074;2023-04-29T05:12:21;18.17;;;13.00;;
10894;SDS011;5500;49.886;8.074;2023-04-29T05:14:51;15.10;;;13.53;;
10894;SDS011;5500;49.886;8.074;2023-04-29T05:17:19;18.73;;;14.23;;
10894;SDS011;5500;49.886;8.074;2023-04-29T05:19:47;17.10;;;13.47;;
10894;SDS011;5500;49.886;8.074;2023-04-29T05:22:16;15.93;;;12.93;;
10894;SDS011;5500;49.886;8.074;2023-04-29T05:24:44;17.53;;;13.13;;
10894;SDS011;5500;49.886;8.074;2023-04-29T05:27:13;13.07;;;11.40;;
10894;SDS011;5500;49.886;8.074;2023-04-29T05:29:41;14.30;;;12.37;;
10894;SDS011;5500;49.886;8.074;2023-04-29T05:32:08;15.70;;;12.57;;
10894;SDS011;5500;49.886;8.074;2023-04-29T05:34:38;13.83;;;12.27;;
10894;SDS011;5500;49.886;8.074;2023-04-29T05:37:06;13.47;;;12.07;;
10894;SDS011;5500;49.886;8.074;2023-04-29T05:39:35;14.10;;;11.77;;
10894;SDS011;5500;49.886;8.074;2023-04-29T05:42:03;13.27;;;11.50;;
10894;SDS011;5500;49.886;8.074;2023-04-29T05:44:31;13.77;;;10.40;;
10894;SDS011;5500;49.886;8.074;2023-04-29T05:46:59;13.00;;;11.03;;
10894;SDS011;5500;49.886;8.074;2023-04-29T05:49:27;12.80;;;10.57;;
10894;SDS011;5500;49.886;8.074;2023-04-29T05:51:54;12.43;;;10.90;;
10894;SDS011;5500;49.886;8.074;2023-04-29T05:54:22;13.27;;;10.47;;
10894;SDS011;5500;49.886;8.074;2023-04-29T05:56:51;13.10;;;10.17;;
10894;SDS011;5500;49.886;8.074;2023-04-29T05:59:19;11.40;;;10.00;;
10894;SDS011;5500;49.886;8.074;2023-04-29T06:01:47;14.17;;;9.97;;
10894;SDS011;5500;49.886;8.074;2023-04-29T06:04:14;12.47;;;9.80;;
10894;SDS011;5500;49.886;8.074;2023-04-29T06:06:42;12.03;;;9.53;;
10894;SDS011;5500;49.886;8.074;2023-04-29T06:09:10;14.70;;;10.17;;
10894;SDS011;5500;49.886;8.074;2023-04-29T06:11:53;11.90;;;9.87;;
10894;SDS011;5500;49.886;8.074;2023-04-29T06:14:21;10.23;;;8.80;;
10894;SDS011;5500;49.886;8.074;2023-04-29T06:16:49;9.77;;;8.50;;
10894;SDS011;5500;49.886;8.074;2023-04-29T06:19:17;9.23;;;8.33;;
10894;SDS011;5500;49.886;8.074;2023-04-29T06:21:44;9.50;;;8.50;;
10894;SDS011;5500;49.886;8.074;2023-04-29T06:24:12;9.37;;;8.33;;
10894;SDS011;5500;49.886;8.074;2023-04-29T06:26:40;9.53;;;6.90;;
10894;SDS011;5500;49.886;8.074;2023-04-29T06:29:09;8.07;;;7.27;;
10894;SDS011;5500;49.886;8.074;2023-04-29T06:31:39;8.73;;;6.57;;
10894;SDS011;5500;49.886;8.074;2023-04-29T06:34:07;7.93;;;6.80;;
10894;SDS011;5500;49.886;8.074;2023-04-29T06:36:34;7.63;;;6.77;;
10894;SDS011;5500;49.886;8.074;2023-04-29T06:39:02;9.43;;;6.67;;
10894;SDS011;5500;49.886;8.074;2023-04-29T06:41:30;7.33;;;6.37;;
10894;SDS011;5500;49.886;8.074;2023-04-29T06:43:59;8.17;;;6.67;;
10894;SDS011;5500;49.886;8.074;2023-04-29T06:46:28;6.73;;;6.03;;
10894;SDS011;5500;49.886;8.074;2023-04-29T06:48:55;6.50;;;5.90;;
10894;SDS011;5500;49.886;8.074;2023-04-29T06:51:23;9.77;;;6.90;;
10894;SDS011;5500;49.886;8.074;2023-04-29T06:53:53;7.80;;;6.97;;
10894;SDS011;5500;49.886;8.074;2023-04-29T06:56:20;8.93;;;6.97;;
10894;SDS011;5500;49.886;8.074;2023-04-29T06:58:49;7.37;;;6.67;;
10894;SDS011;5500;49.886;8.074;2023-04-29T07:01:16;7.63;;;6.83;;
10894;SDS011;5500;49.886;8.074;2023-04-29T07:03:45;6.97;;;6.27;;
10894;SDS011;5500;49.886;8.074;2023-04-29T07:06:13;6.93;;;6.23;;
10894;SDS011;5500;49.886;8.074;2023-04-29T07:08:41;8.27;;;6.23;;
10894;SDS011;5500;49.886;8.074;2023-04-29T07:11:09;11.57;;;7.20;;
10894;SDS011;5500;49.886;8.074;2023-04-29T07:13:37;6.80;;;6.10;;
10894;SDS011;5500;49.886;8.074;2023-04-29T07:16:05;6.83;;;6.23;;
10894;SDS011;5500;49.886;8.074;2023-04-29T07:18:42;7.87;;;5.90;;
10894;SDS011;5500;49.886;8.074;2023-04-29T07:21:11;8.50;;;6.40;;
10894;SDS011;5500;49.886;8.074;2023-04-29T07:23:38;6.17;;;5.47;;
10894;SDS011;5500;49.886;8.074;2023-04-29T07:26:09;7.20;;;5.90;;
10894;SDS011;5500;49.886;8.074;2023-04-29T07:28:38;7.50;;;5.70;;
10894;SDS011;5500;49.886;8.074;2023-04-29T07:31:06;5.90;;;5.20;;
10894;SDS011;5500;49.886;8.074;2023-04-29T07:33:34;6.00;;;4.97;;
10894;SDS011;5500;49.886;8.074;2023-04-29T07:36:02;5.87;;;4.47;;
10894;SDS011;5500;49.886;8.074;2023-04-29T07:38:31;6.60;;;4.30;;
10894;SDS011;5500;49.886;8.074;2023-04-29T07:40:59;4.67;;;4.03;;
10894;SDS011;5500;49.886;8.074;2023-04-29T07:43:26;4.87;;;4.37;;
10894;SDS011;5500;49.886;8.074;2023-04-29T07:45:54;5.80;;;4.33;;
10894;SDS011;5500;49.886;8.074;2023-04-29T07:48:22;5.10;;;4.43;;
10894;SDS011;5500;49.886;8.074;2023-04-29T07:50:49;4.40;;;4.00;;
10894;SDS011;5500;49.886;8.074;2023-04-29T07:53:17;4.70;;;4.20;;
10894;SDS011;5500;49.886;8.074;2023-04-29T07:55:46;4.87;;;4.40;;
10894;SDS011;5500;49.886;8.074;2023-04-29T07:58:14;5.87;;;4.67;;
10894;SDS011;5500;49.886;8.074;2023-04-29T08:00:42;6.60;;;5.40;;
10894;SDS011;5500;49.886;8.074;2023-04-29T08:03:10;7.20;;;5.77;;
10894;SDS011;5500;49.886;8.074;2023-04-29T08:05:38;6.07;;;5.47;;
10894;SDS011;5500;49.886;8.074;2023-04-29T08:08:07;6.13;;;5.53;;
10894;SDS011;5500;49.886;8.074;2023-04-29T08:10:36;6.73;;;5.80;;
10894;SDS011;5500;49.886;8.074;2023-04-29T08:13:07;6.67;;;5.93;;
10894;SDS011;5500;49.886;8.074;2023-04-29T08:15:35;7.40;;;6.60;;
10894;SDS011;5500;49.886;8.074;2023-04-29T08:18:03;7.07;;;6.47;;
10894;SDS011;5500;49.886;8.074;2023-04-29T08:20:31;7.17;;;6.20;;
10894;SDS011;5500;49.886;8.074;2023-04-29T08:22:58;5.67;;;5.17;;
10894;SDS011;5500;49.886;8.074;2023-04-29T08:25:26;8.60;;;6.67;;
10894;SDS011;5500;49.886;8.074;2023-04-29T08:27:54;7.17;;;6.47;;
10894;SDS011;5500;49.886;8.074;2023-04-29T08:30:24;6.97;;;6.27;;
10894;SDS011;5500;49.886;8.074;2023-04-29T08:32:52;6.17;;;5.57;;
10894;SDS011;5500;49.886;8.074;2023-04-29T08:35:20;7.47;;;6.40;;
10894;SDS011;5500;49.886;8.074;2023-04-29T08:37:48;7.27;;;5.77;;
10894;SDS011;5500;49.886;8.074;2023-04-29T08:40:16;8.77;;;6.97;;
10894;SDS011;5500;49.886;8.074;2023-04-29T08:42:44;7.50;;;6.70;;
10894;SDS011;5500;49.886;8.074;2023-04-29T08:45:14;7.97;;;7.10;;
10894;SDS011;5500;49.886;8.074;2023-04-29T08:47:44;7.93;;;7.13;;
10894;SDS011;5500;49.886;8.074;2023-04-29T08:50:12;7.53;;;6.83;;
10894;SDS011;5500;49.886;8.074;2023-04-29T08:52:40;7.23;;;6.53;;
10894;SDS011;5500;49.886;8.074;2023-04-29T08:55:08;7.90;;;6.53;;
10894;SDS011;5500;49.886;8.074;2023-04-29T08:57:36;7.30;;;6.47;;
10894;SDS011;5500;49.886;8.074;2023-04-29T09:00:06;6.93;;;6.33;;
10894;SDS011;5500;49.886;8.074;2023-04-29T09:02:36;9.53;;;7.27;;
10894;SDS011;5500;49.886;8.074;2023-04-29T09:05:07;7.87;;;7.17;;
10894;SDS011;5500;49.886;8.074;2023-04-29T09:07:36;7.20;;;6.50;;
10894;SDS011;5500;49.886;8.074;2023-04-29T09:10:06;6.80;;;5.93;;
10894;SDS011;5500;49.886;8.074;2023-04-29T09:12:35;8.23;;;7.03;;
10894;SDS011;5500;49.886;8.074;2023-04-29T09:15:03;10.03;;;6.90;;
10894;SDS011;5500;49.886;8.074;2023-04-29T09:17:37;9.17;;;7.27;;
10894;SDS011;5500;49.886;8.074;2023-04-29T09:22:56;6.20;;;5.60;;
10894;SDS011;5500;49.886;8.074;2023-04-29T09:25:26;8.30;;;6.30;;
10894;SDS011;5500;49.886;8.074;2023-04-29T09:27:54;7.37;;;6.13;;
10894;SDS011;5500;49.886;8.074;2023-04-29T09:30:22;6.20;;;5.60;;
10894;SDS011;5500;49.886;8.074;2023-04-29T09:33:04;9.60;;;5.90;;
10894;SDS011;5500;49.886;8.074;2023-04-29T09:35:38;6.53;;;5.93;;
10894;SDS011;5500;49.886;8.074;2023-04-29T09:38:08;5.77;;;5.10;;
10894;SDS011;5500;49.886;8.074;2023-04-29T09:40:37;6.00;;;5.40;;
10894;SDS011;5500;49.886;8.074;2023-04-29T09:43:23;6.07;;;5.47;;
10894;SDS011;5500;49.886;8.074;2023-04-29T09:45:51;6.03;;;5.43;;
10894;SDS011;5500;49.886;8.074;2023-04-29T09:48:19;5.93;;;5.30;;
10894;SDS011;5500;49.886;8.074;2023-04-29T09:51:01;5.80;;;5.20;;
10894;SDS011;5500;49.886;8.074;2023-04-29T09:53:29;5.60;;;5.10;;
10894;SDS011;5500;49.886;8.074;2023-04-29T09:55:59;5.03;;;4.60;;
10894;SDS011;5500;49.886;8.074;2023-04-29T09:58:29;5.20;;;4.70;;
10894;SDS011;5500;49.886;8.074;2023-04-29T10:01:02;5.23;;;4.33;;
10894;SDS011;5500;49.886;8.074;2023-04-29T10:03:31;4.00;;;3.60;;
10894;SDS011;5500;49.886;8.074;2023-04-29T10:06:02;3.40;;;3.10;;
10894;SDS011;5500;49.886;8.074;2023-04-29T10:08:32;3.53;;;3.13;;
10894;SDS011;5500;49.886;8.074;2023-04-29T10:11:01;4.00;;;3.57;;
10894;SDS011;5500;49.886;8.074;2023-04-29T10:13:29;4.00;;;3.60;;
10894;SDS011;5500;49.886;8.074;2023-04-29T10:15:58;4.80;;;3.60;;
10894;SDS011;5500;49.886;8.074;2023-04-29T10:18:34;4.03;;;3.57;;
10894;SDS011;5500;49.886;8.074;2023-04-29T10:21:05;3.70;;;3.40;;
10894;SDS011;5500;49.886;8.074;2023-04-29T10:23:33;4.47;;;4.07;;
10894;SDS011;5500;49.886;8.074;2023-04-29T10:26:02;5.63;;;3.40;;
10894;SDS011;5500;49.886;8.074;2023-04-29T10:28:31;3.90;;;3.43;;
10894;SDS011;5500;49.886;8.074;2023-04-29T10:30:59;4.10;;;3.10;;
10894;SDS011;5500;49.886;8.074;2023-04-29T10:33:29;3.60;;;3.30;;
10894;SDS011;5500;49.886;8.074;2023-04-29T10:35:58;3.50;;;3.13;;
10894;SDS011;5500;49.886;8.074;2023-04-29T10:38:29;3.47;;;3.17;;
10894;SDS011;5500;49.886;8.074;2023-04-29T10:41:01;3.17;;;2.87;;
10894;SDS011;5500;49.886;8.074;2023-04-29T10:43:30;4.07;;;3.07;;
10894;SDS011;5500;49.886;8.074;2023-04-29T10:48:44;4.60;;;2.70;;
10894;SDS011;5500;49.886;8.074;2023-04-29T10:51:12;3.30;;;3.00;;
10894;SDS011;5500;49.886;8.074;2023-04-29T10:56:35;3.47;;;3.03;;
10894;SDS011;5500;49.886;8.074;2023-04-29T10:59:04;4.13;;;3.27;;
10894;SDS011;5500;49.886;8.074;2023-04-29T11:01:39;4.13;;;3.73;;
10894;SDS011;5500;49.886;8.074;2023-04-29T11:04:08;3.87;;;3.23;;
10894;SDS011;5500;49.886;8.074;2023-04-29T11:06:37;3.90;;;3.60;;
10894;SDS011;5500;49.886;8.074;2023-04-29T11:09:12;4.40;;;3.23;;
10894;SDS011;5500;49.886;8.074;2023-04-29T11:11:55;3.40;;;3.10;;
10894;SDS011;5500;49.886;8.074;2023-04-29T11:14:28;4.07;;;3.17;;
10894;SDS011;5500;49.886;8.074;2023-04-29T11:16:58;4.60;;;3.37;;
10894;SDS011;5500;49.886;8.074;2023-04-29T11:19:30;4.30;;;3.90;;
10894;SDS011;5500;49.886;8.074;2023-04-29T11:22:02;4.90;;;3.77;;
10894;SDS011;5500;49.886;8.074;2023-04-29T11:24:36;4.10;;;3.70;;
10894;SDS011;5500;49.886;8.074;2023-04-29T11:27:15;4.87;;;3.87;;
10894;SDS011;5500;49.886;8.074;2023-04-29T11:29:44;3.73;;;3.20;;
10894;SDS011;5500;49.886;8.074;2023-04-29T11:32:12;4.50;;;3.23;;
10894;SDS011;5500;49.886;8.074;2023-04-29T11:34:40;3.43;;;3.13;;
10894;SDS011;5500;49.886;8.074;2023-04-29T11:40:21;4.50;;;4.07;;
10894;SDS011;5500;49.886;8.074;2023-04-29T11:42:49;4.07;;;3.70;;
10894;SDS011;5500;49.886;8.074;2023-04-29T11:45:17;3.67;;;3.27;;
10894;SDS011;5500;49.886;8.074;2023-04-29T11:47:45;4.27;;;3.87;;
10894;SDS011;5500;49.886;8.074;2023-04-29T11:50:15;4.07;;;3.67;;
10894;SDS011;5500;49.886;8.074;2023-04-29T11:52:46;4.53;;;4.13;;
10894;SDS011;5500;49.886;8.074;2023-04-29T11:55:14;4.40;;;4.00;;
10894;SDS011;5500;49.886;8.074;2023-04-29T11:57:43;4.13;;;3.70;;
10894;SDS011;5500;49.886;8.074;2023-04-29T12:00:10;4.97;;;3.60;;
10894;SDS011;5500;49.886;8.074;2023-04-29T12:02:42;4.33;;;3.73;;
10894;SDS011;5500;49.886;8.074;2023-04-29T12:05:11;4.57;;;4.17;;
10894;SDS011;5500;49.886;8.074;2023-04-29T12:07:41;4.87;;;4.27;;
10894;SDS011;5500;49.886;8.074;2023-04-29T12:10:09;4.50;;;4.10;;
10894;SDS011;5500;49.886;8.074;2023-04-29T12:12:37;4.47;;;4.07;;
10894;SDS011;5500;49.886;8.074;2023-04-29T12:15:10;5.40;;;4.27;;
10894;SDS011;5500;49.886;8.074;2023-04-29T12:17:38;4.37;;;3.97;;
10894;SDS011;5500;49.886;8.074;2023-04-29T12:20:06;4.80;;;4.40;;
10894;SDS011;5500;49.886;8.074;2023-04-29T12:22:35;4.27;;;3.87;;
10894;SDS011;5500;49.886;8.074;2023-04-29T12:25:03;4.40;;;4.00;;
10894;SDS011;5500;49.886;8.074;2023-04-29T12:27:34;4.20;;;3.87;;
10894;SDS011;5500;49.886;8.074;2023-04-29T12:30:05;4.10;;;3.80;;
10894;SDS011;5500;49.886;8.074;2023-04-29T12:32:34;3.70;;;3.40;;
10894;SDS011;5500;49.886;8.074;2023-04-29T12:35:03;5.10;;;4.07;;
10894;SDS011;5500;49.886;8.074;2023-04-29T12:37:31;3.63;;;3.33;;
10894;SDS011;5500;49.886;8.074;2023-04-29T12:40:00;3.40;;;3.10;;
10894;SDS011;5500;49.886;8.074;2023-04-29T12:42:30;3.63;;;3.33;;
10894;SDS011;5500;49.886;8.074;2023-04-29T12:44:58;4.27;;;3.60;;
10894;SDS011;5500;49.886;8.074;2023-04-29T12:47:30;4.50;;;4.10;;
10894;SDS011;5500;49.886;8.074;2023-04-29T12:50:01;3.83;;;3.53;;
10894;SDS011;5500;49.886;8.074;2023-04-29T12:52:28;4.37;;;3.67;;
10894;SDS011;5500;49.886;8.074;2023-04-29T12:54:56;4.83;;;4.37;;
10894;SDS011;5500;49.886;8.074;2023-04-29T12:57:24;5.07;;;4.00;;
10894;SDS011;5500;49.886;8.074;2023-04-29T12:59:54;4.10;;;3.70;;
10894;SDS011;5500;49.886;8.074;2023-04-29T13:02:21;3.90;;;3.47;;
10894;SDS011;5500;49.886;8.074;2023-04-29T13:04:49;3.70;;;3.40;;
10894;SDS011;5500;49.886;8.074;2023-04-29T13:07:18;3.93;;;3.53;;
10894;SDS011;5500;49.886;8.074;2023-04-29T13:09:46;3.43;;;3.13;;
10894;SDS011;5500;49.886;8.074;2023-04-29T13:12:15;3.73;;;3.43;;
10894;SDS011;5500;49.886;8.074;2023-04-29T13:14:43;3.13;;;2.93;;
10894;SDS011;5500;49.886;8.074;2023-04-29T13:17:11;3.50;;;3.20;;
10894;SDS011;5500;49.886;8.074;2023-04-29T13:19:39;3.67;;;3.37;;
10894;SDS011;5500;49.886;8.074;2023-04-29T13:22:18;4.33;;;3.93;;
10894;SDS011;5500;49.886;8.074;2023-04-29T13:24:46;4.43;;;3.40;;
10894;SDS011;5500;49.886;8.074;2023-04-29T13:27:14;4.27;;;3.57;;
10894;SDS011;5500;49.886;8.074;2023-04-29T13:29:53;4.60;;;3.20;;
10894;SDS011;5500;49.886;8.074;2023-04-29T13:32:21;3.30;;;3.00;;
10894;SDS011;5500;49.886;8.074;2023-04-29T13:34:50;4.90;;;3.47;;
10894;SDS011;5500;49.886;8.074;2023-04-29T13:37:19;3.47;;;3.17;;
10894;SDS011;5500;49.886;8.074;2023-04-29T13:39:47;4.17;;;3.43;;
10894;SDS011;5500;49.886;8.074;2023-04-29T13:42:22;3.20;;;2.90;;
10894;SDS011;5500;49.886;8.074;2023-04-29T13:44:52;2.90;;;2.70;;
10894;SDS011;5500;49.886;8.074;2023-04-29T13:47:22;3.13;;;2.93;;
10894;SDS011;5500;49.886;8.074;2023-04-29T13:49:55;3.20;;;2.90;;
10894;SDS011;5500;49.886;8.074;2023-04-29T13:52:26;3.53;;;3.23;;
10894;SDS011;5500;49.886;8.074;2023-04-29T13:54:58;3.87;;;3.57;;
10894;SDS011;5500;49.886;8.074;2023-04-29T13:57:46;4.27;;;3.87;;
10894;SDS011;5500;49.886;8.074;2023-04-29T14:00:16;4.00;;;3.60;;
10894;SDS011;5500;49.886;8.074;2023-04-29T14:03:04;4.83;;;3.83;;
10894;SDS011;5500;49.886;8.074;2023-04-29T14:05:33;4.23;;;3.60;;
10894;SDS011;5500;49.886;8.074;2023-04-29T14:08:02;3.60;;;3.30;;
10894;SDS011;5500;49.886;8.074;2023-04-29T14:10:31;5.63;;;4.40;;
10894;SDS011;5500;49.886;8.074;2023-04-29T14:12:58;4.47;;;4.07;;
10894;SDS011;5500;49.886;8.074;2023-04-29T14:15:26;4.30;;;3.90;;
10894;SDS011;5500;49.886;8.074;2023-04-29T14:17:54;4.50;;;4.10;;
10894;SDS011;5500;49.886;8.074;2023-04-29T14:20:22;4.60;;;4.20;;
10894;SDS011;5500;49.886;8.074;2023-04-29T14:22:50;4.73;;;4.23;;
10894;SDS011;5500;49.886;8.074;2023-04-29T14:25:20;5.03;;;4.23;;
10894;SDS011;5500;49.886;8.074;2023-04-29T14:27:48;5.67;;;5.07;;
10894;SDS011;5500;49.886;8.074;2023-04-29T14:30:16;5.23;;;4.73;;
10894;SDS011;5500;49.886;8.074;2023-04-29T14:32:43;7.63;;;5.87;;
10894;SDS011;5500;49.886;8.074;2023-04-29T14:35:12;7.23;;;5.17;;
10894;SDS011;5500;49.886;8.074;2023-04-29T14:37:40;5.87;;;5.30;;
10894;SDS011;5500;49.886;8.074;2023-04-29T14:40:08;4.90;;;4.50;;
10894;SDS011;5500;49.886;8.074;2023-04-29T14:42:37;5.93;;;4.77;;
10894;SDS011;5500;49.886;8.074;2023-04-29T14:45:06;5.60;;;5.10;;
10894;SDS011;5500;49.886;8.074;2023-04-29T14:47:34;4.80;;;4.40;;
10894;SDS011;5500;49.886;8.074;2023-04-29T14:50:02;5.90;;;5.40;;
10894;SDS011;5500;49.886;8.074;2023-04-29T14:52:30;5.10;;;4.60;;
10894;SDS011;5500;49.886;8.074;2023-04-29T14:54:58;6.73;;;5.20;;
10894;SDS011;5500;49.886;8.074;2023-04-29T14:57:25;5.80;;;5.20;;
10894;SDS011;5500;49.886;8.074;2023-04-29T14:59:56;6.30;;;5.80;;
10894;SDS011;5500;49.886;8.074;2023-04-29T15:02:24;6.40;;;5.80;;
10894;SDS011;5500;49.886;8.074;2023-04-29T15:04:52;6.00;;;5.20;;
10894;SDS011;5500;49.886;8.074;2023-04-29T15:07:20;6.03;;;5.47;;
10894;SDS011;5500;49.886;8.074;2023-04-29T15:09:48;5.70;;;5.20;;
10894;SDS011;5500;49.886;8.074;2023-04-29T15:12:15;6.10;;;5.50;;
10894;SDS011;5500;49.886;8.074;2023-04-29T15:14:45;5.27;;;4.73;;
10894;SDS011;5500;49.886;8.074;2023-04-29T15:17:15;6.10;;;5.50;;
10894;SDS011;5500;49.886;8.074;2023-04-29T15:19:42;5.80;;;5.27;;
10894;SDS011;5500;49.886;8.074;2023-04-29T15:22:10;7.60;;;6.33;;
10894;SDS011;5500;49.886;8.074;2023-04-29T15:24:38;8.27;;;7.47;;